Wednesday, August 27, 2014
21:03 UTC
  |  Log In   |  Register Free
Airport Search:

New River Valley Airport
(KPSK)

New River Valley Airport Diagram
No Airport Diagram Available

FAA data valid effective July 24, 2014 until September 18, 2014 (unless otherwise noted).

 
 
 
 
 
 
 
 
 
 
 
 
 
 

Current Aviation Weather for New River Valley Airport (KPSK)

The most recent METAR observation for KPSK was updated at: 1835 UTC
METAR Summary (Translated METAR)
KPSK
281835Z AUTO 27011G23KT 10SM BKN042 BKN048 OVC065 24/14 A2991 RMK AO2 T02410136
KBCB
(13.6 nm NE from KPSK)
281835Z AUTO 30007G18KT 250V330 10SM SCT043 SCT049 BKN080 23/15 RMK AO2
TAF Summary (Translated TAF)
KBCB
(13.6 nm NE from KPSK)
271720Z 2718/2818 36005KT P6SM SCT035 FM280200 VRB03KT P6SM SCT040 FM280800 00000KT 3SM BR SCT005 TEMPO 2809/2812 1/2SM FG BKN005 FM281400 32005KT P6SM BKN025
  Airport Weather Conditions for KPSK

 Current Weather at PSK
83° F
Fair
West winds at 3.5 mph
PSK NOAA Radar

Pressure: 30.13 in
Humidity: 48%
Wind: West at 3.5 MPH (3 KT)
Dew Point: 60.8°F
Visibility: 10.00 mi


Airport Weather Forecast for KPSK

Translated METAR and TAF for KPSK
Translated METAR for KPSK (2057 UTC 27 August 2014)
found at http://aviationweather.gov/adds/metars/
 
METAR text: KPSK 272035Z AUTO 00000KT 10SM CLR 28/17 A3012 RMK AO2 T02810167
Conditions at: KPSK (DUBLIN/NEW RIV , VA, US) observed 2035 UTC 27 August 2014
Temperature: 28.1°C (83°F)
Dewpoint: 16.7°C (62°F) [RH = 50%]
Pressure (altimeter): 30.12 inches Hg (1020.1 mb)
Winds: calm
Visibility: 10 or more miles (16+ km)
Ceiling: at least 12,000 feet AGL
Clouds: sky clear below 12,000 feet AGL
Weather: automated observation with no human augmentation;
there may or may not be significant weather present at this time
Translated TAF for KPSK

There is no translated TAF available for this airport

Find All Airport Services Find A Hotel Find A Rental Car Find A Golf Course Find A Restaurant $100 Hamburger



FBO's on the Field
FBO Company Facility Photos Services Transportation Aviation Fuel Prices: Prices include tax
Catering Weather Repair Courtesy Rental Type 100LL JetA JetA+ MOGAS 8087
 
New River Valley Airport

This FBO has not yet been rated
FS:Avfuel
Last Updated: Aug-11
Login to update fuel prices
SS:
Contact New River Valley AirportMore FBO Information
 
Add another FBO Facility Photos Catering Weather Repair Courtesy Rental Type 100LL JetA JetA+ MOGAS 8087
Services Transportation Aviation Fuel Prices: Prices include tax


GlobalAir.com Airport Resource Center model-print
model-print
model-print
model-print